Time;durP1;ratioP1;P1;durP2;ratioP2;P2;SDS_P1;SDS_P2;PMS_P1;PMS_P2;Temp;Humidity;BMP_temperature;BMP_pressure;BME280_temperature;BME280_humidity;BME280_pressure;Samples;Min_cycle;Max_cycle;Signal;HPM_P1;HPM_P2
2019/12/09 00:00:27;;;;;;;0.9;0.9;;;;;;;11.03;60.75391;94187.02;;;;
2019/12/09 00:01:36;;;;;;;0.9;0.9;;;;;;;11.03;60.75391;94187.02;;;;
2019/12/09 00:02:38;;;;;;;0.9;0.9;;;;;;;11.03;60.75391;94187.02;;;;
2019/12/09 00:03:39;;;;;;;1.1;1;;;;;;;10.92;61.24414;94200.09;;;;
2019/12/09 00:04:40;;;;;;;1.1;1;;;;;;;10.92;61.24414;94200.09;;;;
2019/12/09 00:05:41;;;;;;;1.1;1;;;;;;;10.92;61.24414;94200.09;;;;
2019/12/09 00:06:42;;;;;;;1.1;1;;;;;;;10.92;61.24414;94200.09;;;;
2019/12/09 00:07:43;;;;;;;1.1;1;;;;;;;10.92;61.24414;94200.09;;;;
2019/12/09 00:08:44;;;;;;;1.1;1;;;;;;;10.92;61.24414;94200.09;;;;
2019/12/09 00:09:46;;;;;;;1.1;1;;;;;;;10.92;61.24414;94200.09;;;;
2019/12/09 00:10:47;;;;;;;1.1;1;;;;;;;10.92;61.24414;94200.09;;;;
2019/12/09 00:11:48;;;;;;;1.1;1;;;;;;;10.92;61.24414;94200.09;;;;
2019/12/09 00:12:49;;;;;;;1.1;1;;;;;;;10.92;61.24414;94200.09;;;;
2019/12/09 00:13:50;;;;;;;1.1;1;;;;;;;10.8;62.13086;94210.31;;;;
2019/12/09 00:14:51;;;;;;;1.1;1;;;;;;;10.8;62.13086;94210.31;;;;
2019/12/09 00:15:52;;;;;;;1.1;1;;;;;;;10.8;62.13086;94210.31;;;;
2019/12/09 00:16:53;;;;;;;1.1;1;;;;;;;10.8;62.13086;94210.31;;;;
2019/12/09 00:17:54;;;;;;;1.1;1;;;;;;;10.8;62.13086;94210.31;;;;
2019/12/09 00:18:56;;;;;;;1.1;1;;;;;;;10.8;62.13086;94210.31;;;;
2019/12/09 00:19:57;;;;;;;1.1;1;;;;;;;10.8;62.13086;94210.31;;;;
2019/12/09 00:20:58;;;;;;;1.1;1;;;;;;;10.8;62.13086;94210.31;;;;
2019/12/09 00:21:59;;;;;;;1.1;1;;;;;;;10.8;62.13086;94210.31;;;;
2019/12/09 00:23:00;;;;;;;1.1;1;;;;;;;10.8;62.13086;94210.31;;;;
2019/12/09 00:24:01;;;;;;;1.1;1;;;;;;;10.8;62.13086;94210.31;;;;
2019/12/09 00:25:02;;;;;;;1.1;1;;;;;;;10.76;62.59668;94207.86;;;;
2019/12/09 00:26:03;;;;;;;1.1;1;;;;;;;10.76;62.59668;94207.86;;;;
2019/12/09 00:27:04;;;;;;;1.1;1;;;;;;;10.76;62.59668;94207.86;;;;
2019/12/09 00:28:06;;;;;;;1.1;1;;;;;;;10.76;62.59668;94207.86;;;;
2019/12/09 00:29:07;;;;;;;1.1;1;;;;;;;10.76;62.59668;94207.86;;;;
2019/12/09 00:30:08;;;;;;;1.1;1;;;;;;;10.76;62.59668;94207.86;;;;
2019/12/09 00:31:09;;;;;;;1.1;1;;;;;;;10.76;62.59668;94207.86;;;;
2019/12/09 00:32:10;;;;;;;1.1;1;;;;;;;10.76;62.59668;94207.86;;;;
2019/12/09 00:33:11;;;;;;;1.1;1;;;;;;;10.76;62.59668;94207.86;;;;
2019/12/09 00:34:12;;;;;;;1.1;1;;;;;;;10.76;62.59668;94207.86;;;;
2019/12/09 00:35:13;;;;;;;1.6;1.2;;;;;;;10.65;63.23535;94192.83;;;;
2019/12/09 00:36:15;;;;;;;1.6;1.2;;;;;;;10.65;63.23535;94192.83;;;;
2019/12/09 00:37:16;;;;;;;1.6;1.2;;;;;;;10.65;63.23535;94192.83;;;;
2019/12/09 00:38:17;;;;;;;1.6;1.2;;;;;;;10.65;63.23535;94192.83;;;;
2019/12/09 00:39:18;;;;;;;1.6;1.2;;;;;;;10.65;63.23535;94192.83;;;;
2019/12/09 00:40:19;;;;;;;1.6;1.2;;;;;;;10.65;63.23535;94192.83;;;;
2019/12/09 00:41:20;;;;;;;1.6;1.2;;;;;;;10.65;63.23535;94192.83;;;;
2019/12/09 00:42:21;;;;;;;1.6;1.2;;;;;;;10.65;63.23535;94192.83;;;;
2019/12/09 00:43:22;;;;;;;1.6;1.2;;;;;;;10.65;63.23535;94192.83;;;;
2019/12/09 00:44:23;;;;;;;1.6;1.2;;;;;;;10.65;63.23535;94192.83;;;;
2019/12/09 00:45:24;;;;;;;1.2;1.1;;;;;;;10.56;63.48145;94215.84;;;;
2019/12/09 00:46:26;;;;;;;1.2;1.1;;;;;;;10.56;63.48145;94215.84;;;;
2019/12/09 00:47:27;;;;;;;1.2;1.1;;;;;;;10.56;63.48145;94215.84;;;;
2019/12/09 00:48:28;;;;;;;1.2;1.1;;;;;;;10.56;63.48145;94215.84;;;;
2019/12/09 00:49:29;;;;;;;1.2;1.1;;;;;;;10.56;63.48145;94215.84;;;;
2019/12/09 00:50:30;;;;;;;1.2;1.1;;;;;;;10.56;63.48145;94215.84;;;;
2019/12/09 00:51:31;;;;;;;1.2;1.1;;;;;;;10.56;63.48145;94215.84;;;;
2019/12/09 00:52:32;;;;;;;1.2;1.1;;;;;;;10.56;63.48145;94215.84;;;;
2019/12/09 00:53:33;;;;;;;1.2;1.1;;;;;;;10.56;63.48145;94215.84;;;;
2019/12/09 00:54:34;;;;;;;1.2;1.1;;;;;;;10.56;63.48145;94215.84;;;;
2019/12/09 00:55:35;;;;;;;1.2;1.1;;;;;;;10.56;63.48145;94215.84;;;;
2019/12/09 00:56:37;;;;;;;1.15;1.1;;;;;;;10.37;63.80762;94233.56;;;;
2019/12/09 00:57:38;;;;;;;1.15;1.1;;;;;;;10.37;63.80762;94233.56;;;;
2019/12/09 00:58:39;;;;;;;1.15;1.1;;;;;;;10.37;63.80762;94233.56;;;;
2019/12/09 00:59:40;;;;;;;1.15;1.1;;;;;;;10.37;63.80762;94233.56;;;;
2019/12/09 01:05:49;;;;;;;1.15;1.1;;;;;;;10.37;63.80762;94233.56;;;;
2019/12/09 01:06:50;;;;;;;1.3;1.2;;;;;;;10.3;64.1416;94230.69;;;;
2019/12/09 01:07:52;;;;;;;1.3;1.2;;;;;;;10.3;64.1416;94230.69;;;;
2019/12/09 01:08:53;;;;;;;1.3;1.2;;;;;;;10.3;64.1416;94230.69;;;;
2019/12/09 01:09:54;;;;;;;1.3;1.2;;;;;;;10.3;64.1416;94230.69;;;;
2019/12/09 01:10:55;;;;;;;1.3;1.2;;;;;;;10.3;64.1416;94230.69;;;;
2019/12/09 01:11:56;;;;;;;1.3;1.2;;;;;;;10.3;64.1416;94230.69;;;;
2019/12/09 01:12:57;;;;;;;1.3;1.2;;;;;;;10.3;64.1416;94230.69;;;;
2019/12/09 01:13:58;;;;;;;1.3;1.2;;;;;;;10.3;64.1416;94230.69;;;;
2019/12/09 01:14:59;;;;;;;1.3;1.2;;;;;;;10.3;64.1416;94230.69;;;;
2019/12/09 01:16:00;;;;;;;1.3;1.2;;;;;;;10.3;64.1416;94230.69;;;;
2019/12/09 01:17:01;;;;;;;1.3;1.2;;;;;;;10.3;64.1416;94230.69;;;;
2019/12/09 01:18:03;;;;;;;1.25;1.15;;;;;;;10.17;64.77441;94250.53;;;;
2019/12/09 01:19:04;;;;;;;1.25;1.15;;;;;;;10.17;64.77441;94250.53;;;;
2019/12/09 01:20:05;;;;;;;1.25;1.15;;;;;;;10.17;64.77441;94250.53;;;;
2019/12/09 01:21:06;;;;;;;1.25;1.15;;;;;;;10.17;64.77441;94250.53;;;;
2019/12/09 01:22:07;;;;;;;1.25;1.15;;;;;;;10.17;64.77441;94250.53;;;;
2019/12/09 01:23:08;;;;;;;1.25;1.15;;;;;;;10.17;64.77441;94250.53;;;;
2019/12/09 01:24:09;;;;;;;1.25;1.15;;;;;;;10.17;64.77441;94250.53;;;;
2019/12/09 01:25:10;;;;;;;1.25;1.15;;;;;;;10.17;64.77441;94250.53;;;;
2019/12/09 01:26:11;;;;;;;1.25;1.15;;;;;;;10.17;64.77441;94250.53;;;;
2019/12/09 01:27:13;;;;;;;1.25;1.15;;;;;;;10.17;64.77441;94250.53;;;;
2019/12/09 01:28:14;;;;;;;1.7;1.25;;;;;;;10.13;65.45313;94259.83;;;;
2019/12/09 01:29:15;;;;;;;1.7;1.25;;;;;;;10.13;65.45313;94259.83;;;;
2019/12/09 01:30:16;;;;;;;1.7;1.25;;;;;;;10.13;65.45313;94259.83;;;;
2019/12/09 01:31:17;;;;;;;1.7;1.25;;;;;;;10.13;65.45313;94259.83;;;;
2019/12/09 01:32:18;;;;;;;1.7;1.25;;;;;;;10.13;65.45313;94259.83;;;;
2019/12/09 01:33:19;;;;;;;1.7;1.25;;;;;;;10.13;65.45313;94259.83;;;;
2019/12/09 01:34:20;;;;;;;1.7;1.25;;;;;;;10.13;65.45313;94259.83;;;;
2019/12/09 01:35:21;;;;;;;1.7;1.25;;;;;;;10.13;65.45313;94259.83;;;;
2019/12/09 01:36:22;;;;;;;1.7;1.25;;;;;;;10.13;65.45313;94259.83;;;;
2019/12/09 01:37:24;;;;;;;1.7;1.25;;;;;;;10.13;65.45313;94259.83;;;;
2019/12/09 01:38:25;;;;;;;1.5;1.15;;;;;;;10.09;65.51367;94254.13;;;;
2019/12/09 01:39:26;;;;;;;1.5;1.15;;;;;;;10.09;65.51367;94254.13;;;;
2019/12/09 01:40:27;;;;;;;1.5;1.15;;;;;;;10.09;65.51367;94254.13;;;;
2019/12/09 01:41:28;;;;;;;1.5;1.15;;;;;;;10.09;65.51367;94254.13;;;;
2019/12/09 01:42:29;;;;;;;1.5;1.15;;;;;;;10.09;65.51367;94254.13;;;;
2019/12/09 01:43:30;;;;;;;1.5;1.15;;;;;;;10.09;65.51367;94254.13;;;;
2019/12/09 01:44:31;;;;;;;1.5;1.15;;;;;;;10.09;65.51367;94254.13;;;;
2019/12/09 01:45:32;;;;;;;1.5;1.15;;;;;;;10.09;65.51367;94254.13;;;;
2019/12/09 01:46:33;;;;;;;1.5;1.15;;;;;;;10.09;65.51367;94254.13;;;;
2019/12/09 01:47:35;;;;;;;1.5;1.15;;;;;;;10.09;65.51367;94254.13;;;;
2019/12/09 01:48:36;;;;;;;1.5;1.15;;;;;;;10.09;65.51367;94254.13;;;;
2019/12/09 01:49:37;;;;;;;1.45;1.05;;;;;;;9.99;65.71387;94258.87;;;;
2019/12/09 01:50:38;;;;;;;1.45;1.05;;;;;;;9.99;65.71387;94258.87;;;;
2019/12/09 01:51:39;;;;;;;1.45;1.05;;;;;;;9.99;65.71387;94258.87;;;;
2019/12/09 01:52:40;;;;;;;1.45;1.05;;;;;;;9.99;65.71387;94258.87;;;;
2019/12/09 01:53:41;;;;;;;1.45;1.05;;;;;;;9.99;65.71387;94258.87;;;;
2019/12/09 01:54:43;;;;;;;1.45;1.05;;;;;;;9.99;65.71387;94258.87;;;;
2019/12/09 01:55:44;;;;;;;1.45;1.05;;;;;;;9.99;65.71387;94258.87;;;;
2019/12/09 01:56:45;;;;;;;1.45;1.05;;;;;;;9.99;65.71387;94258.87;;;;
2019/12/09 01:57:46;;;;;;;1.45;1.05;;;;;;;9.99;65.71387;94258.87;;;;
2019/12/09 01:58:47;;;;;;;1.45;1.05;;;;;;;9.99;65.71387;94258.87;;;;
2019/12/09 01:59:48;;;;;;;1.45;1.05;;;;;;;9.99;65.71387;94258.87;;;;
2019/12/09 02:00:49;;;;;;;1.45;1.05;;;;;;;9.99;65.71387;94258.87;;;;
2019/12/09 02:01:50;;;;;;;1.45;1.05;;;;;;;9.99;65.71387;94258.87;;;;
2019/12/09 02:02:52;;;;;;;1.45;1.05;;;;;;;9.99;65.71387;94258.87;;;;
2019/12/09 02:03:53;;;;;;;1.45;1.05;;;;;;;9.99;65.71387;94258.87;;;;
2019/12/09 02:04:54;;;;;;;1.45;1.05;;;;;;;9.99;65.71387;94258.87;;;;
2019/12/09 02:05:55;;;;;;;1.45;1.05;;;;;;;9.99;65.71387;94258.87;;;;
2019/12/09 02:06:57;;;;;;;1.45;1.05;;;;;;;9.99;65.71387;94258.87;;;;
2019/12/09 02:07:58;;;;;;;1.45;1.05;;;;;;;9.99;65.71387;94258.87;;;;
2019/12/09 02:08:59;;;;;;;1.45;1.05;;;;;;;9.99;65.71387;94258.87;;;;
2019/12/09 02:10:00;;;;;;;1.45;1.05;;;;;;;9.99;65.71387;94258.87;;;;
2019/12/09 02:11:01;;;;;;;1.3;1.2;;;;;;;9.7;66.68555;94262.09;;;;
2019/12/09 02:12:02;;;;;;;1.3;1.2;;;;;;;9.7;66.68555;94262.09;;;;
2019/12/09 02:13:04;;;;;;;1.3;1.2;;;;;;;9.7;66.68555;94262.09;;;;
2019/12/09 02:14:05;;;;;;;1.3;1.2;;;;;;;9.7;66.68555;94262.09;;;;
2019/12/09 02:15:06;;;;;;;1.3;1.2;;;;;;;9.7;66.68555;94262.09;;;;
2019/12/09 02:16:07;;;;;;;1.3;1.2;;;;;;;9.7;66.68555;94262.09;;;;
2019/12/09 02:17:08;;;;;;;1.3;1.2;;;;;;;9.7;66.68555;94262.09;;;;
2019/12/09 02:18:09;;;;;;;1.3;1.2;;;;;;;9.7;66.68555;94262.09;;;;
2019/12/09 02:19:11;;;;;;;1.3;1.2;;;;;;;9.7;66.68555;94262.09;;;;
2019/12/09 02:20:12;;;;;;;1.3;1.2;;;;;;;9.7;66.68555;94262.09;;;;
2019/12/09 02:21:13;;;;;;;1.7;1.3;;;;;;;9.48;67.18652;94257.69;;;;
2019/12/09 02:22:15;;;;;;;1.7;1.3;;;;;;;9.48;67.18652;94257.69;;;;
2019/12/09 02:23:16;;;;;;;1.7;1.3;;;;;;;9.48;67.18652;94257.69;;;;
2019/12/09 02:24:17;;;;;;;1.7;1.3;;;;;;;9.48;67.18652;94257.69;;;;
2019/12/09 02:25:18;;;;;;;1.7;1.3;;;;;;;9.48;67.18652;94257.69;;;;
2019/12/09 02:26:19;;;;;;;1.7;1.3;;;;;;;9.48;67.18652;94257.69;;;;
2019/12/09 02:27:20;;;;;;;1.7;1.3;;;;;;;9.48;67.18652;94257.69;;;;
2019/12/09 02:28:21;;;;;;;1.7;1.3;;;;;;;9.48;67.18652;94257.69;;;;
2019/12/09 02:29:23;;;;;;;1.7;1.3;;;;;;;9.48;67.18652;94257.69;;;;
2019/12/09 02:30:24;;;;;;;1.7;1.3;;;;;;;9.48;67.18652;94257.69;;;;
2019/12/09 02:31:25;;;;;;;1.7;1.3;;;;;;;9.48;67.18652;94257.69;;;;
2019/12/09 02:32:26;;;;;;;1.3;1.2;;;;;;;9.36;67.58594;94243.05;;;;
2019/12/09 02:33:27;;;;;;;1.3;1.2;;;;;;;9.36;67.58594;94243.05;;;;
2019/12/09 02:34:29;;;;;;;1.3;1.2;;;;;;;9.36;67.58594;94243.05;;;;
2019/12/09 02:36:41;;;;;;;1.3;1.2;;;;;;;9.36;67.58594;94243.05;;;;
2019/12/09 02:42:52;;;;;;;1.35;1.1;;;;;;;9.26;68.17969;94240.22;;;;
2019/12/09 02:43:54;;;;;;;1.35;1.1;;;;;;;9.26;68.17969;94240.22;;;;
2019/12/09 02:44:55;;;;;;;1.35;1.1;;;;;;;9.26;68.17969;94240.22;;;;
2019/12/09 02:45:56;;;;;;;1.35;1.1;;;;;;;9.26;68.17969;94240.22;;;;
2019/12/09 02:46:57;;;;;;;1.35;1.1;;;;;;;9.26;68.17969;94240.22;;;;
2019/12/09 02:47:58;;;;;;;1.35;1.1;;;;;;;9.26;68.17969;94240.22;;;;
2019/12/09 02:48:59;;;;;;;1.35;1.1;;;;;;;9.26;68.17969;94240.22;;;;
2019/12/09 02:50:01;;;;;;;1.35;1.1;;;;;;;9.26;68.17969;94240.22;;;;
2019/12/09 02:51:02;;;;;;;1.35;1.1;;;;;;;9.26;68.17969;94240.22;;;;
2019/12/09 02:52:03;;;;;;;1.35;1.1;;;;;;;9.26;68.17969;94240.22;;;;
2019/12/09 02:53:04;;;;;;;1.3;1.2;;;;;;;9.26;68.80957;94220.99;;;;
2019/12/09 02:54:06;;;;;;;1.3;1.2;;;;;;;9.26;68.80957;94220.99;;;;
2019/12/09 02:55:07;;;;;;;1.3;1.2;;;;;;;9.26;68.80957;94220.99;;;;
2019/12/09 02:56:08;;;;;;;1.3;1.2;;;;;;;9.26;68.80957;94220.99;;;;
2019/12/09 02:57:09;;;;;;;1.3;1.2;;;;;;;9.26;68.80957;94220.99;;;;
2019/12/09 02:58:11;;;;;;;1.3;1.2;;;;;;;9.26;68.80957;94220.99;;;;
2019/12/09 02:59:12;;;;;;;1.3;1.2;;;;;;;9.26;68.80957;94220.99;;;;
2019/12/09 03:00:13;;;;;;;1.3;1.2;;;;;;;9.26;68.80957;94220.99;;;;
2019/12/09 03:01:14;;;;;;;1.3;1.2;;;;;;;9.26;68.80957;94220.99;;;;
2019/12/09 03:02:15;;;;;;;1.3;1.2;;;;;;;9.26;68.80957;94220.99;;;;
2019/12/09 03:03:16;;;;;;;1.3;1.2;;;;;;;9.26;68.80957;94220.99;;;;
2019/12/09 03:04:17;;;;;;;1.55;1.2;;;;;;;9.18;69.30957;94221.01;;;;
2019/12/09 03:05:19;;;;;;;1.55;1.2;;;;;;;9.18;69.30957;94221.01;;;;
2019/12/09 03:06:20;;;;;;;1.55;1.2;;;;;;;9.18;69.30957;94221.01;;;;
2019/12/09 03:07:21;;;;;;;1.55;1.2;;;;;;;9.18;69.30957;94221.01;;;;
2019/12/09 03:08:22;;;;;;;1.55;1.2;;;;;;;9.18;69.30957;94221.01;;;;
2019/12/09 03:09:23;;;;;;;1.55;1.2;;;;;;;9.18;69.30957;94221.01;;;;
2019/12/09 03:10:24;;;;;;;1.55;1.2;;;;;;;9.18;69.30957;94221.01;;;;
2019/12/09 03:11:26;;;;;;;1.55;1.2;;;;;;;9.18;69.30957;94221.01;;;;
2019/12/09 03:12:27;;;;;;;1.55;1.2;;;;;;;9.18;69.30957;94221.01;;;;
2019/12/09 03:14:32;;;;;;;1.55;1.2;;;;;;;9.18;69.30957;94221.01;;;;
2019/12/09 03:15:34;;;;;;;1.45;1.3;;;;;;;9.18;69.93945;94217.91;;;;
2019/12/09 03:16:41;;;;;;;1.45;1.3;;;;;;;9.18;69.93945;94217.91;;;;
2019/12/09 03:17:44;;;;;;;1.45;1.3;;;;;;;9.18;69.93945;94217.91;;;;
2019/12/09 03:18:46;;;;;;;1.45;1.3;;;;;;;9.18;69.93945;94217.91;;;;
2019/12/09 03:19:49;;;;;;;1.45;1.3;;;;;;;9.18;69.93945;94217.91;;;;
2019/12/09 03:20:53;;;;;;;1.45;1.3;;;;;;;9.18;69.93945;94217.91;;;;
2019/12/09 03:21:55;;;;;;;1.45;1.3;;;;;;;9.18;69.93945;94217.91;;;;
2019/12/09 03:22:56;;;;;;;1.45;1.3;;;;;;;9.18;69.93945;94217.91;;;;
2019/12/09 03:23:59;;;;;;;1.45;1.3;;;;;;;9.18;69.93945;94217.91;;;;
2019/12/09 03:25:06;;;;;;;2.1;1.4;;;;;;;9.07;69.97656;94214.71;;;;
2019/12/09 03:26:43;;;;;;;2.1;1.4;;;;;;;9.07;69.97656;94214.71;;;;
2019/12/09 03:28:02;;;;;;;2.1;1.4;;;;;;;9.07;69.97656;94214.71;;;;
2019/12/09 03:29:04;;;;;;;2.1;1.4;;;;;;;9.07;69.97656;94214.71;;;;
2019/12/09 03:30:09;;;;;;;2.1;1.4;;;;;;;9.07;69.97656;94214.71;;;;
2019/12/09 03:31:14;;;;;;;2.1;1.4;;;;;;;9.07;69.97656;94214.71;;;;
2019/12/09 03:32:15;;;;;;;2.1;1.4;;;;;;;9.07;69.97656;94214.71;;;;
2019/12/09 03:33:16;;;;;;;2.1;1.4;;;;;;;9.07;69.97656;94214.71;;;;
2019/12/09 03:34:17;;;;;;;2.1;1.4;;;;;;;9.07;69.97656;94214.71;;;;
2019/12/09 03:35:18;;;;;;;2.1;1.4;;;;;;;9.07;69.97656;94214.71;;;;
2019/12/09 03:36:19;;;;;;;1.6;1.3;;;;;;;8.98;69.89648;94228.49;;;;
2019/12/09 03:37:20;;;;;;;1.6;1.3;;;;;;;8.98;69.89648;94228.49;;;;
2019/12/09 03:38:22;;;;;;;1.6;1.3;;;;;;;8.98;69.89648;94228.49;;;;
2019/12/09 03:39:23;;;;;;;1.6;1.3;;;;;;;8.98;69.89648;94228.49;;;;
2019/12/09 03:40:24;;;;;;;1.6;1.3;;;;;;;8.98;69.89648;94228.49;;;;
2019/12/09 03:41:25;;;;;;;1.6;1.3;;;;;;;8.98;69.89648;94228.49;;;;
2019/12/09 03:42:28;;;;;;;1.6;1.3;;;;;;;8.98;69.89648;94228.49;;;;
2019/12/09 03:43:40;;;;;;;1.6;1.3;;;;;;;8.98;69.89648;94228.49;;;;
2019/12/09 03:44:44;;;;;;;1.6;1.3;;;;;;;8.98;69.89648;94228.49;;;;
2019/12/09 03:45:52;;;;;;;1.6;1.3;;;;;;;8.98;69.89648;94228.49;;;;
2019/12/09 03:46:56;;;;;;;2.25;1.2;;;;;;;8.85;69.10742;94229.68;;;;
2019/12/09 03:48:03;;;;;;;2.25;1.2;;;;;;;8.85;69.10742;94229.68;;;;
2019/12/09 03:49:04;;;;;;;2.25;1.2;;;;;;;8.85;69.10742;94229.68;;;;
2019/12/09 03:50:10;;;;;;;2.25;1.2;;;;;;;8.85;69.10742;94229.68;;;;
2019/12/09 03:51:11;;;;;;;2.25;1.2;;;;;;;8.85;69.10742;94229.68;;;;
2019/12/09 03:52:13;;;;;;;2.25;1.2;;;;;;;8.85;69.10742;94229.68;;;;
2019/12/09 03:53:22;;;;;;;2.25;1.2;;;;;;;8.85;69.10742;94229.68;;;;
2019/12/09 03:54:26;;;;;;;2.25;1.2;;;;;;;8.85;69.10742;94229.68;;;;
2019/12/09 03:55:30;;;;;;;2.25;1.2;;;;;;;8.85;69.10742;94229.68;;;;
2019/12/09 03:56:36;;;;;;;2.25;1.2;;;;;;;8.85;69.10742;94229.68;;;;
2019/12/09 03:57:45;;;;;;;3;1.4;;;;;;;8.7;67.64355;94226.26;;;;
2019/12/09 03:58:53;;;;;;;3;1.4;;;;;;;8.7;67.64355;94226.26;;;;
2019/12/09 03:59:56;;;;;;;3;1.4;;;;;;;8.7;67.64355;94226.26;;;;
2019/12/09 04:01:00;;;;;;;3;1.4;;;;;;;8.7;67.64355;94226.26;;;;
2019/12/09 04:02:02;;;;;;;3;1.4;;;;;;;8.7;67.64355;94226.26;;;;
2019/12/09 04:03:03;;;;;;;3;1.4;;;;;;;8.7;67.64355;94226.26;;;;
2019/12/09 04:04:11;;;;;;;3;1.4;;;;;;;8.7;67.64355;94226.26;;;;
2019/12/09 04:05:18;;;;;;;3;1.4;;;;;;;8.7;67.64355;94226.26;;;;
2019/12/09 04:06:22;;;;;;;3;1.4;;;;;;;8.7;67.64355;94226.26;;;;
2019/12/09 04:07:25;;;;;;;2.95;1.4;;;;;;;8.51;65.90527;94215.65;;;;
2019/12/09 04:08:29;;;;;;;2.95;1.4;;;;;;;8.51;65.90527;94215.65;;;;
2019/12/09 04:09:30;;;;;;;2.95;1.4;;;;;;;8.51;65.90527;94215.65;;;;
2019/12/09 04:10:31;;;;;;;2.95;1.4;;;;;;;8.51;65.90527;94215.65;;;;
2019/12/09 04:11:32;;;;;;;2.95;1.4;;;;;;;8.51;65.90527;94215.65;;;;
2019/12/09 04:12:33;;;;;;;2.95;1.4;;;;;;;8.51;65.90527;94215.65;;;;
2019/12/09 04:13:34;;;;;;;2.95;1.4;;;;;;;8.51;65.90527;94215.65;;;;
2019/12/09 04:14:36;;;;;;;2.95;1.4;;;;;;;8.51;65.90527;94215.65;;;;
2019/12/09 04:15:37;;;;;;;2.95;1.4;;;;;;;8.51;65.90527;94215.65;;;;
2019/12/09 04:16:38;;;;;;;2.95;1.4;;;;;;;8.51;65.90527;94215.65;;;;
2019/12/09 04:17:39;;;;;;;2.95;1.4;;;;;;;8.51;65.90527;94215.65;;;;
2019/12/09 04:18:40;;;;;;;2.55;1.3;;;;;;;8.34;64.91016;94220.54;;;;
2019/12/09 04:19:42;;;;;;;2.55;1.3;;;;;;;8.34;64.91016;94220.54;;;;
2019/12/09 04:20:43;;;;;;;2.55;1.3;;;;;;;8.34;64.91016;94220.54;;;;
2019/12/09 04:21:44;;;;;;;2.55;1.3;;;;;;;8.34;64.91016;94220.54;;;;
2019/12/09 04:22:45;;;;;;;2.55;1.3;;;;;;;8.34;64.91016;94220.54;;;;
2019/12/09 04:23:46;;;;;;;2.55;1.3;;;;;;;8.34;64.91016;94220.54;;;;
2019/12/09 04:24:47;;;;;;;2.55;1.3;;;;;;;8.34;64.91016;94220.54;;;;
2019/12/09 04:25:48;;;;;;;2.55;1.3;;;;;;;8.34;64.91016;94220.54;;;;
2019/12/09 04:26:49;;;;;;;2.55;1.3;;;;;;;8.34;64.91016;94220.54;;;;
2019/12/09 04:27:51;;;;;;;2.55;1.3;;;;;;;8.34;64.91016;94220.54;;;;
2019/12/09 04:28:53;;;;;;;2.3;1.3;;;;;;;8.09;64.71191;94216.64;;;;
2019/12/09 04:29:55;;;;;;;2.3;1.3;;;;;;;8.09;64.71191;94216.64;;;;
2019/12/09 04:30:58;;;;;;;2.3;1.3;;;;;;;8.09;64.71191;94216.64;;;;
2019/12/09 04:32:06;;;;;;;2.3;1.3;;;;;;;8.09;64.71191;94216.64;;;;
2019/12/09 04:33:10;;;;;;;2.3;1.3;;;;;;;8.09;64.71191;94216.64;;;;
2019/12/09 04:34:15;;;;;;;2.3;1.3;;;;;;;8.09;64.71191;94216.64;;;;
2019/12/09 04:40:50;;;;;;;3.9;1.7;;;;;;;7.87;64.73145;94218.44;;;;
2019/12/09 04:41:58;;;;;;;3.9;1.7;;;;;;;7.87;64.73145;94218.44;;;;
2019/12/09 04:43:01;;;;;;;3.9;1.7;;;;;;;7.87;64.73145;94218.44;;;;
2019/12/09 04:44:08;;;;;;;3.9;1.7;;;;;;;7.87;64.73145;94218.44;;;;
2019/12/09 04:45:22;;;;;;;3.9;1.7;;;;;;;7.87;64.73145;94218.44;;;;
2019/12/09 04:46:31;;;;;;;3.9;1.7;;;;;;;7.87;64.73145;94218.44;;;;
2019/12/09 04:47:40;;;;;;;3.9;1.7;;;;;;;7.87;64.73145;94218.44;;;;
2019/12/09 04:48:41;;;;;;;3.9;1.7;;;;;;;7.87;64.73145;94218.44;;;;
2019/12/09 04:49:45;;;;;;;2.7;1.4;;;;;;;7.62;64.78027;94204.6;;;;
2019/12/09 04:50:47;;;;;;;2.7;1.4;;;;;;;7.62;64.78027;94204.6;;;;
2019/12/09 04:51:52;;;;;;;2.7;1.4;;;;;;;7.62;64.78027;94204.6;;;;
2019/12/09 04:52:54;;;;;;;2.7;1.4;;;;;;;7.62;64.78027;94204.6;;;;
2019/12/09 04:53:56;;;;;;;2.7;1.4;;;;;;;7.62;64.78027;94204.6;;;;
2019/12/09 04:54:59;;;;;;;2.7;1.4;;;;;;;7.62;64.78027;94204.6;;;;
2019/12/09 04:56:00;;;;;;;2.7;1.4;;;;;;;7.62;64.78027;94204.6;;;;
2019/12/09 04:57:01;;;;;;;2.7;1.4;;;;;;;7.62;64.78027;94204.6;;;;
2019/12/09 04:58:02;;;;;;;2.7;1.4;;;;;;;7.62;64.78027;94204.6;;;;
2019/12/09 04:59:03;;;;;;;2.7;1.4;;;;;;;7.62;64.78027;94204.6;;;;
2019/12/09 05:00:05;;;;;;;2.7;1.4;;;;;;;7.62;64.78027;94204.6;;;;
2019/12/09 05:01:06;;;;;;;4.5;1.55;;;;;;;7.51;64.79492;94170.47;;;;
2019/12/09 05:02:07;;;;;;;4.5;1.55;;;;;;;7.51;64.79492;94170.47;;;;
2019/12/09 05:03:08;;;;;;;4.5;1.55;;;;;;;7.51;64.79492;94170.47;;;;
2019/12/09 05:04:09;;;;;;;4.5;1.55;;;;;;;7.51;64.79492;94170.47;;;;
2019/12/09 05:05:10;;;;;;;4.5;1.55;;;;;;;7.51;64.79492;94170.47;;;;
2019/12/09 05:06:11;;;;;;;4.5;1.55;;;;;;;7.51;64.79492;94170.47;;;;
2019/12/09 05:07:13;;;;;;;4.5;1.55;;;;;;;7.51;64.79492;94170.47;;;;
2019/12/09 05:08:17;;;;;;;4.5;1.55;;;;;;;7.51;64.79492;94170.47;;;;
2019/12/09 05:09:18;;;;;;;4.5;1.55;;;;;;;7.51;64.79492;94170.47;;;;
2019/12/09 05:10:19;;;;;;;4.5;1.55;;;;;;;7.51;64.79492;94170.47;;;;
2019/12/09 05:11:21;;;;;;;4.95;1.9;;;;;;;7.38;64.9248;94183.38;;;;
2019/12/09 05:12:22;;;;;;;4.95;1.9;;;;;;;7.38;64.9248;94183.38;;;;
2019/12/09 05:13:24;;;;;;;4.95;1.9;;;;;;;7.38;64.9248;94183.38;;;;
2019/12/09 05:14:25;;;;;;;4.95;1.9;;;;;;;7.38;64.9248;94183.38;;;;
2019/12/09 05:15:26;;;;;;;4.95;1.9;;;;;;;7.38;64.9248;94183.38;;;;
2019/12/09 05:16:27;;;;;;;4.95;1.9;;;;;;;7.38;64.9248;94183.38;;;;
2019/12/09 05:17:28;;;;;;;4.95;1.9;;;;;;;7.38;64.9248;94183.38;;;;
2019/12/09 05:18:29;;;;;;;4.95;1.9;;;;;;;7.38;64.9248;94183.38;;;;
2019/12/09 05:19:30;;;;;;;4.95;1.9;;;;;;;7.38;64.9248;94183.38;;;;
2019/12/09 05:20:32;;;;;;;4.95;1.9;;;;;;;7.38;64.9248;94183.38;;;;
2019/12/09 05:21:33;;;;;;;6.750001;1.95;;;;;;;7.33;65.07715;94190.84;;;;
2019/12/09 05:22:34;;;;;;;6.750001;1.95;;;;;;;7.33;65.07715;94190.84;;;;
2019/12/09 05:23:35;;;;;;;6.750001;1.95;;;;;;;7.33;65.07715;94190.84;;;;
2019/12/09 05:24:36;;;;;;;6.750001;1.95;;;;;;;7.33;65.07715;94190.84;;;;
2019/12/09 05:25:37;;;;;;;6.750001;1.95;;;;;;;7.33;65.07715;94190.84;;;;
2019/12/09 05:26:38;;;;;;;6.750001;1.95;;;;;;;7.33;65.07715;94190.84;;;;
2019/12/09 05:27:39;;;;;;;6.750001;1.95;;;;;;;7.33;65.07715;94190.84;;;;
2019/12/09 05:28:40;;;;;;;6.750001;1.95;;;;;;;7.33;65.07715;94190.84;;;;
2019/12/09 05:29:41;;;;;;;6.750001;1.95;;;;;;;7.33;65.07715;94190.84;;;;
2019/12/09 05:30:42;;;;;;;6.750001;1.95;;;;;;;7.33;65.07715;94190.84;;;;
2019/12/09 05:31:44;;;;;;;6.750001;1.95;;;;;;;7.33;65.07715;94190.84;;;;
2019/12/09 05:32:45;;;;;;;6.5;1.8;;;;;;;7.24;65.10547;94206.23;;;;
2019/12/09 05:33:46;;;;;;;6.5;1.8;;;;;;;7.24;65.10547;94206.23;;;;
2019/12/09 05:34:47;;;;;;;6.5;1.8;;;;;;;7.24;65.10547;94206.23;;;;
2019/12/09 05:35:48;;;;;;;6.5;1.8;;;;;;;7.24;65.10547;94206.23;;;;
2019/12/09 05:36:49;;;;;;;6.5;1.8;;;;;;;7.24;65.10547;94206.23;;;;
2019/12/09 05:37:50;;;;;;;6.5;1.8;;;;;;;7.24;65.10547;94206.23;;;;
2019/12/09 05:38:51;;;;;;;6.5;1.8;;;;;;;7.24;65.10547;94206.23;;;;
2019/12/09 05:39:52;;;;;;;6.5;1.8;;;;;;;7.24;65.10547;94206.23;;;;
2019/12/09 05:40:54;;;;;;;6.5;1.8;;;;;;;7.24;65.10547;94206.23;;;;
2019/12/09 05:41:55;;;;;;;6.5;1.8;;;;;;;7.24;65.10547;94206.23;;;;
2019/12/09 05:42:56;;;;;;;5.8;1.8;;;;;;;7.17;65.24512;94186.27;;;;
2019/12/09 05:43:57;;;;;;;5.8;1.8;;;;;;;7.17;65.24512;94186.27;;;;
2019/12/09 05:44:58;;;;;;;5.8;1.8;;;;;;;7.17;65.24512;94186.27;;;;
2019/12/09 05:45:59;;;;;;;5.8;1.8;;;;;;;7.17;65.24512;94186.27;;;;
2019/12/09 05:47:00;;;;;;;5.8;1.8;;;;;;;7.17;65.24512;94186.27;;;;
2019/12/09 05:48:01;;;;;;;5.8;1.8;;;;;;;7.17;65.24512;94186.27;;;;
2019/12/09 05:49:02;;;;;;;5.8;1.8;;;;;;;7.17;65.24512;94186.27;;;;
2019/12/09 05:50:03;;;;;;;5.8;1.8;;;;;;;7.17;65.24512;94186.27;;;;
2019/12/09 05:51:05;;;;;;;5.8;1.8;;;;;;;7.17;65.24512;94186.27;;;;
2019/12/09 05:52:06;;;;;;;5.8;1.8;;;;;;;7.17;65.24512;94186.27;;;;
2019/12/09 05:53:07;;;;;;;5.8;1.8;;;;;;;7.17;65.24512;94186.27;;;;
2019/12/09 05:54:08;;;;;;;6.2;1.8;;;;;;;7.01;65.59277;94182.61;;;;
2019/12/09 05:55:09;;;;;;;6.2;1.8;;;;;;;7.01;65.59277;94182.61;;;;
2019/12/09 05:56:10;;;;;;;6.2;1.8;;;;;;;7.01;65.59277;94182.61;;;;
2019/12/09 05:57:26;;;;;;;6.2;1.8;;;;;;;7.01;65.59277;94182.61;;;;
2019/12/09 05:58:27;;;;;;;6.2;1.8;;;;;;;7.01;65.59277;94182.61;;;;
2019/12/09 05:59:28;;;;;;;6.2;1.8;;;;;;;7.01;65.59277;94182.61;;;;
2019/12/09 06:00:29;;;;;;;6.2;1.8;;;;;;;7.01;65.59277;94182.61;;;;
2019/12/09 06:01:30;;;;;;;6.2;1.8;;;;;;;7.01;65.59277;94182.61;;;;
2019/12/09 06:02:32;;;;;;;6.2;1.8;;;;;;;7.01;65.59277;94182.61;;;;
2019/12/09 06:03:33;;;;;;;6.2;1.8;;;;;;;7.01;65.59277;94182.61;;;;
2019/12/09 06:04:34;;;;;;;4.75;1.55;;;;;;;6.94;65.8584;94188.65;;;;
2019/12/09 06:05:35;;;;;;;4.75;1.55;;;;;;;6.94;65.8584;94188.65;;;;
2019/12/09 06:07:27;;;;;;;4.75;1.55;;;;;;;6.94;65.8584;94188.65;;;;
2019/12/09 06:08:30;;;;;;;4.75;1.55;;;;;;;6.94;65.8584;94188.65;;;;
2019/12/09 06:09:31;;;;;;;4.75;1.55;;;;;;;6.94;65.8584;94188.65;;;;
2019/12/09 06:10:32;;;;;;;4.75;1.55;;;;;;;6.94;65.8584;94188.65;;;;
2019/12/09 06:11:37;;;;;;;4.75;1.55;;;;;;;6.94;65.8584;94188.65;;;;
2019/12/09 06:12:44;;;;;;;4.75;1.55;;;;;;;6.94;65.8584;94188.65;;;;
2019/12/09 06:13:45;;;;;;;4.75;1.55;;;;;;;6.94;65.8584;94188.65;;;;
2019/12/09 06:14:46;;;;;;;5.650001;1.55;;;;;;;6.87;66.37988;94171.89;;;;
2019/12/09 06:15:47;;;;;;;5.650001;1.55;;;;;;;6.87;66.37988;94171.89;;;;
2019/12/09 06:16:48;;;;;;;5.650001;1.55;;;;;;;6.87;66.37988;94171.89;;;;
2019/12/09 06:17:49;;;;;;;5.650001;1.55;;;;;;;6.87;66.37988;94171.89;;;;
2019/12/09 06:18:50;;;;;;;5.650001;1.55;;;;;;;6.87;66.37988;94171.89;;;;
2019/12/09 06:19:52;;;;;;;5.650001;1.55;;;;;;;6.87;66.37988;94171.89;;;;
2019/12/09 06:20:53;;;;;;;5.650001;1.55;;;;;;;6.87;66.37988;94171.89;;;;